Terminal Aerodrome Forecast
Issued by NWS Shreveport, LA

Home | Current Version | Previous Version | Text Only | Print | Product List | Glossary On
Versions: 1 2 3 4 5 6 7 8 9 10 11 12 13 14 15 16 17 18
000
FTUS44 KSHV 260500 RRA
TAFMLU
TAF
KMLU 260541Z 2606/2706 16003KT P6SM SKC
     FM260800 17003KT P6SM SCT250
     FM261000 15003KT P6SM BKN250
     FM261400 13003KT P6SM OVC050
     FM261700 15006KT P6SM OVC050
     FM262300 14006KT P6SM OVC025=

USA.gov is the U.S. government's official web portal to all federal, state and local government web resources and services.